createdAt,value
2022-09-24T00:00:54.416Z,6.16
2022-09-24T00:03:22.304Z,6.16
2022-09-24T00:05:48.740Z,6.16
2022-09-24T00:08:16.259Z,6.26
2022-09-24T00:10:43.812Z,6.21
2022-09-24T00:13:12.366Z,6.26
2022-09-24T00:15:43.462Z,6.31
2022-09-24T00:18:11.751Z,6.35
2022-09-24T00:20:38.725Z,6.40
2022-09-24T00:23:06.094Z,6.43
2022-09-24T00:25:50.873Z,6.49
2022-09-24T00:28:17.354Z,6.46
2022-09-24T00:30:44.603Z,6.43
2022-09-24T00:33:11.541Z,6.53
2022-09-24T00:35:40.002Z,6.56
2022-09-24T00:38:06.413Z,6.45
2022-09-24T00:40:33.966Z,6.50
2022-09-24T00:43:00.825Z,6.48
2022-09-24T00:45:31.712Z,6.49
2022-09-24T00:47:59.027Z,6.40
2022-09-24T00:50:28.524Z,6.43
2022-09-24T00:52:54.879Z,6.59
2022-09-24T00:55:22.229Z,6.57
2022-09-24T00:57:50.070Z,6.56
2022-09-24T01:00:16.604Z,6.57
2022-09-24T01:02:45.535Z,6.73
2022-09-24T01:05:11.883Z,6.66
2022-09-24T01:07:38.299Z,6.66
2022-09-24T01:10:05.281Z,6.59
2022-09-24T01:12:40.647Z,6.57
2022-09-24T01:15:06.970Z,6.56
2022-09-24T01:17:36.395Z,6.54
2022-09-24T01:20:08.899Z,6.61
2022-09-24T01:22:49.685Z,6.56
2022-09-24T01:25:25.055Z,6.46
2022-09-24T01:28:02.590Z,6.47
2022-09-24T01:30:32.279Z,6.41
2022-09-24T01:33:01.448Z,6.32
2022-09-24T01:35:34.230Z,6.28
2022-09-24T01:38:07.500Z,6.35
2022-09-24T01:40:34.516Z,6.41
2022-09-24T01:43:03.648Z,6.43
2022-09-24T01:45:32.064Z,6.33
2022-09-24T01:48:02.069Z,6.28
2022-09-24T01:50:30.793Z,6.25
2022-09-24T01:53:06.544Z,6.22
2022-09-24T01:55:35.551Z,6.31
2022-09-24T01:58:05.006Z,6.23
2022-09-24T02:00:31.496Z,6.24
2022-09-24T02:03:01.722Z,6.24
2022-09-24T02:05:37.236Z,6.27
2022-09-24T02:08:09.300Z,6.20
2022-09-24T02:10:46.346Z,6.28
2022-09-24T02:13:14.838Z,6.31
2022-09-24T02:15:44.317Z,6.41
2022-09-24T02:18:12.662Z,6.27
2022-09-24T02:20:39.966Z,6.10
2022-09-24T02:23:07.943Z,6.04
2022-09-24T02:25:50.557Z,6.12
2022-09-24T02:28:18.099Z,6.18
2022-09-24T02:30:48.678Z,6.16
2022-09-24T02:33:34.538Z,6.04
2022-09-24T02:36:01.063Z,6.16
2022-09-24T02:38:27.495Z,6.05
2022-09-24T02:40:55.218Z,6.01
2022-09-24T02:43:21.711Z,6.04
2022-09-24T02:45:48.107Z,5.95
2022-09-24T02:48:14.492Z,5.88
2022-09-24T02:50:40.871Z,5.79
2022-09-24T02:53:07.334Z,5.75
2022-09-24T02:55:33.664Z,5.71
2022-09-24T02:58:00.166Z,5.68
2022-09-24T03:00:26.585Z,5.65
2022-09-24T03:02:53.007Z,5.53
2022-09-24T03:05:19.482Z,5.50
2022-09-24T03:07:45.903Z,5.52
2022-09-24T03:10:13.080Z,5.46
2022-09-24T03:12:40.274Z,5.42
2022-09-24T03:15:06.798Z,5.57
2022-09-24T03:17:33.352Z,5.49
2022-09-24T03:19:59.715Z,5.40
2022-09-24T03:22:26.099Z,5.32
2022-09-24T03:24:53.954Z,5.36
2022-09-24T03:27:21.085Z,5.30
2022-09-24T03:30:06.179Z,5.17
2022-09-24T03:32:33.802Z,5.26
2022-09-24T03:35:01.382Z,5.35
2022-09-24T03:37:27.791Z,5.35
2022-09-24T03:39:54.150Z,5.28
2022-09-24T03:42:20.529Z,5.23
2022-09-24T03:44:48.017Z,5.24
2022-09-24T03:47:14.382Z,5.18
2022-09-24T03:49:40.770Z,5.26
2022-09-24T03:52:07.142Z,5.26
2022-09-24T03:54:33.571Z,5.19
2022-09-24T03:57:00.083Z,5.20
2022-09-24T03:59:26.431Z,5.25
2022-09-24T04:01:52.921Z,5.33
2022-09-24T04:04:19.323Z,5.32
2022-09-24T04:06:45.723Z,5.37
2022-09-24T04:09:12.101Z,5.41
2022-09-24T04:11:38.521Z,5.47
2022-09-24T04:14:05.125Z,5.59
2022-09-24T04:16:31.724Z,5.57
2022-09-24T04:18:58.221Z,5.57
2022-09-24T04:21:24.818Z,5.69
2022-09-24T04:23:51.247Z,5.75
2022-09-24T04:26:17.752Z,5.81
2022-09-24T04:28:44.288Z,5.89
2022-09-24T04:31:11.026Z,5.83
2022-09-24T04:33:37.476Z,6.02
2022-09-24T04:36:03.883Z,5.94
2022-09-24T04:38:30.284Z,5.87
2022-09-24T04:41:05.027Z,5.88
2022-09-24T04:43:33.195Z,5.93
2022-09-24T04:46:00.985Z,5.89
2022-09-24T04:48:27.624Z,5.85
2022-09-24T04:50:54.090Z,5.89
2022-09-24T04:53:20.587Z,5.91
2022-09-24T04:55:47.357Z,5.86
2022-09-24T04:58:13.856Z,5.83
2022-09-24T05:00:40.744Z,5.67
2022-09-24T05:03:07.314Z,5.63
2022-09-24T05:05:34.706Z,5.64
2022-09-24T05:08:01.684Z,5.63
2022-09-24T05:10:29.454Z,5.52
2022-09-24T05:12:56.045Z,5.59
2022-09-24T05:15:22.649Z,5.53
2022-09-24T05:17:49.369Z,5.60
2022-09-24T05:20:16.891Z,5.64
2022-09-24T05:22:44.278Z,5.79
2022-09-24T05:25:12.750Z,5.84
2022-09-24T05:27:45.604Z,6.00
2022-09-24T05:30:13.063Z,6.65
2022-09-24T05:32:39.868Z,7.00
2022-09-24T05:35:08.257Z,7.43
2022-09-24T05:37:35.630Z,7.92
2022-09-24T05:40:22.748Z,8.12
2022-09-24T05:42:49.747Z,8.41
2022-09-24T05:45:17.587Z,8.93
2022-09-24T05:47:47.014Z,9.75
2022-09-24T05:50:13.719Z,10.80
2022-09-24T05:52:40.387Z,10.32
2022-09-24T05:55:07.949Z,9.41
2022-09-24T05:57:34.479Z,8.64
2022-09-24T06:00:00.909Z,8.49
2022-09-24T06:02:27.314Z,8.35
2022-09-24T06:04:53.836Z,9.23
2022-09-24T06:07:21.407Z,10.54
2022-09-24T06:09:48.016Z,12.31
2022-09-24T06:12:14.713Z,14.01
2022-09-24T06:14:43.786Z,14.52
2022-09-24T06:17:10.744Z,13.69
2022-09-24T06:19:37.569Z,12.68
2022-09-24T06:22:03.904Z,12.14
2022-09-24T06:24:30.279Z,11.23
2022-09-24T06:26:58.315Z,10.54
2022-09-24T06:29:24.708Z,10.34
2022-09-24T06:31:53.275Z,10.25
2022-09-24T06:34:19.712Z,10.47
2022-09-24T06:36:46.053Z,12.17
2022-09-24T06:39:12.425Z,14.48
2022-09-24T06:41:38.802Z,14.30
2022-09-24T06:44:05.218Z,13.87
2022-09-24T06:46:31.603Z,13.78
2022-09-24T06:48:58.013Z,13.10
2022-09-24T06:51:24.388Z,14.79
2022-09-24T06:53:51.241Z,14.80
2022-09-24T06:56:17.595Z,14.18
2022-09-24T06:58:43.949Z,13.96
2022-09-24T07:01:10.371Z,14.05
2022-09-24T07:03:38.981Z,13.90
2022-09-24T07:06:05.925Z,14.37
2022-09-24T07:08:32.613Z,15.93
2022-09-24T07:10:59.203Z,17.88
2022-09-24T07:13:25.637Z,17.05
2022-09-24T07:15:52.744Z,16.20
2022-09-24T07:18:19.897Z,14.81
2022-09-24T07:20:51.940Z,15.24
2022-09-24T07:23:18.524Z,17.73
2022-09-24T07:25:44.884Z,19.20
2022-09-24T07:28:13.287Z,18.01
2022-09-24T07:30:40.354Z,16.19
2022-09-24T07:33:07.536Z,16.74
2022-09-24T07:35:37.097Z,16.86
2022-09-24T07:38:06.375Z,18.42
2022-09-24T07:40:33.635Z,19.22
2022-09-24T07:43:00.702Z,18.28
2022-09-24T07:45:29.612Z,18.02
2022-09-24T07:48:01.077Z,19.04
2022-09-24T07:50:32.710Z,20.48
2022-09-24T07:53:00.665Z,22.34
2022-09-24T07:55:27.804Z,21.65
2022-09-24T07:57:55.706Z,23.42
2022-09-24T08:00:24.321Z,23.46
2022-09-24T08:02:53.762Z,22.66
2022-09-24T08:05:20.481Z,20.91
2022-09-24T08:07:54.392Z,20.19
2022-09-24T08:10:21.636Z,18.72
2022-09-24T08:12:48.225Z,18.31
2022-09-24T08:15:15.720Z,18.28
2022-09-24T08:17:42.534Z,16.94
2022-09-24T08:20:09.577Z,16.75
2022-09-24T08:22:36.117Z,16.46
2022-09-24T08:25:03.281Z,16.27
2022-09-24T08:27:30.090Z,16.59
2022-09-24T08:29:57.851Z,16.46
2022-09-24T08:32:24.378Z,15.97
2022-09-24T08:34:52.714Z,15.86
2022-09-24T08:37:19.337Z,15.33
2022-09-24T08:39:45.834Z,15.68
2022-09-24T08:42:24.539Z,16.63
2022-09-24T08:45:10.979Z,16.23
2022-09-24T08:47:46.015Z,16.41
2022-09-24T08:50:17.342Z,17.11
2022-09-24T08:52:43.811Z,17.37
2022-09-24T08:55:36.669Z,17.03
2022-09-24T08:58:06.125Z,17.34
2022-09-24T09:00:39.960Z,17.31
2022-09-24T09:03:14.843Z,17.56
2022-09-24T09:05:54.037Z,17.94
2022-09-24T09:08:55.062Z,18.48
2022-09-24T09:11:24.752Z,19.50
2022-09-24T09:14:04.622Z,18.33
2022-09-24T09:16:35.458Z,18.25
2022-09-24T09:19:09.602Z,17.92
2022-09-24T09:22:21.582Z,17.81
2022-09-24T09:24:50.598Z,17.84
2022-09-24T09:27:18.728Z,17.24
2022-09-24T09:29:49.282Z,17.06
2022-09-24T09:32:44.998Z,16.82
2022-09-24T09:35:19.546Z,16.84
2022-09-24T09:37:59.123Z,17.02
2022-09-24T09:41:00.021Z,16.90
2022-09-24T09:43:26.846Z,16.87
2022-09-24T09:46:02.799Z,16.72
2022-09-24T09:48:46.272Z,16.82
2022-09-24T09:51:22.990Z,16.74
2022-09-24T09:54:16.110Z,16.62
2022-09-24T09:56:44.030Z,16.88
2022-09-24T09:59:13.572Z,16.90
2022-09-24T10:01:42.299Z,17.07
2022-09-24T10:04:30.753Z,16.77
2022-09-24T10:07:07.214Z,16.86
2022-09-24T10:09:34.577Z,16.79
2022-09-24T10:12:09.890Z,16.39
2022-09-24T10:14:36.368Z,16.18
2022-09-24T10:17:06.324Z,16.58
2022-09-24T10:19:35.134Z,16.49
2022-09-24T10:22:28.799Z,16.50
2022-09-24T10:24:59.814Z,16.62
2022-09-24T10:27:36.266Z,16.84
2022-09-24T10:30:33.699Z,16.99
2022-09-24T10:33:03.123Z,16.26
2022-09-24T10:35:36.137Z,16.45
2022-09-24T10:38:15.614Z,16.45
2022-09-24T10:40:42.276Z,16.85
2022-09-24T10:43:17.648Z,16.74
2022-09-24T10:46:13.093Z,16.92
2022-09-24T10:48:48.083Z,17.11
2022-09-24T10:51:29.171Z,17.86
2022-09-24T10:54:33.496Z,17.73
2022-09-24T10:57:10.322Z,17.66
2022-09-24T10:59:55.740Z,17.66
2022-09-24T11:02:33.978Z,17.93
2022-09-24T11:05:19.093Z,18.01
2022-09-24T11:08:15.600Z,18.06
2022-09-24T11:10:54.356Z,18.16
2022-09-24T11:13:40.605Z,17.83
2022-09-24T11:16:25.917Z,17.67
2022-09-24T11:19:20.093Z,17.60
2022-09-24T11:22:14.600Z,17.76
2022-09-24T11:25:02.843Z,18.18
2022-09-24T11:27:50.905Z,17.90
2022-09-24T11:30:24.790Z,17.95
2022-09-24T11:33:06.216Z,17.76
2022-09-24T11:35:44.252Z,17.88
2022-09-24T11:38:37.129Z,17.70
2022-09-24T11:41:21.311Z,17.45
2022-09-24T11:43:57.402Z,17.15
2022-09-24T11:46:47.198Z,16.70
2022-09-24T11:49:35.238Z,16.51
2022-09-24T11:52:20.398Z,16.47
2022-09-24T11:54:59.134Z,16.65
2022-09-24T11:57:30.381Z,16.54
2022-09-24T12:00:08.761Z,16.83
2022-09-24T12:02:37.882Z,16.55
2022-09-24T12:05:15.141Z,16.69
2022-09-24T12:08:03.149Z,16.47
2022-09-24T12:10:54.569Z,16.13
2022-09-24T12:13:49.763Z,15.91
2022-09-24T12:16:33.274Z,15.71
2022-09-24T12:19:27.322Z,15.72
2022-09-24T12:21:55.101Z,15.63
2022-09-24T12:24:27.445Z,15.70
2022-09-24T12:26:57.790Z,15.69
2022-09-24T12:30:01.824Z,15.51
2022-09-24T12:32:56.001Z,15.46
2022-09-24T12:35:28.344Z,15.31
2022-09-24T12:38:20.045Z,15.35
2022-09-24T12:40:57.994Z,15.27
2022-09-24T12:43:44.950Z,15.33
2022-09-24T12:46:28.637Z,15.20
2022-09-24T12:48:56.163Z,15.45
2022-09-24T12:51:23.915Z,15.45
2022-09-24T12:54:05.808Z,15.57
2022-09-24T12:56:32.587Z,15.56
2022-09-24T12:58:59.146Z,15.58
2022-09-24T13:01:27.253Z,15.47
2022-09-24T13:04:15.379Z,15.50
2022-09-24T13:06:43.812Z,15.71
2022-09-24T13:09:36.956Z,15.71
2022-09-24T13:12:05.272Z,15.66
2022-09-24T13:14:34.805Z,15.71
2022-09-24T13:17:06.927Z,15.92
2022-09-24T13:19:44.840Z,15.93
2022-09-24T13:22:35.081Z,15.97
2022-09-24T13:25:07.598Z,15.90
2022-09-24T13:27:38.317Z,15.94
2022-09-24T13:30:26.285Z,16.03
2022-09-24T13:33:21.179Z,16.06
2022-09-24T13:36:02.627Z,16.07
2022-09-24T13:38:37.493Z,16.07
2022-09-24T13:41:27.849Z,15.85
2022-09-24T13:44:19.283Z,16.02
2022-09-24T13:46:50.145Z,16.13
2022-09-24T13:49:21.713Z,15.97
2022-09-24T13:51:58.411Z,15.87
2022-09-24T13:54:35.795Z,15.65
2022-09-24T13:57:11.502Z,15.47
2022-09-24T13:59:38.293Z,15.45
2022-09-24T14:02:25.983Z,15.53
2022-09-24T14:04:58.234Z,15.50
2022-09-24T14:07:28.731Z,15.45
2022-09-24T14:10:14.234Z,15.45
2022-09-24T14:12:41.053Z,15.54
2022-09-24T14:15:15.210Z,15.44
2022-09-24T14:17:41.947Z,15.21
2022-09-24T14:20:15.850Z,15.28
2022-09-24T14:22:45.391Z,15.27
2022-09-24T14:25:17.653Z,15.20
2022-09-24T14:27:47.281Z,15.22
2022-09-24T14:30:24.735Z,15.17
2022-09-24T14:32:56.187Z,15.21
2022-09-24T14:35:30.534Z,15.45
2022-09-24T14:38:35.730Z,15.47
2022-09-24T14:41:15.597Z,15.36
2022-09-24T14:43:44.733Z,15.53
2022-09-24T14:46:25.480Z,15.48
2022-09-24T14:48:53.229Z,15.83
2022-09-24T14:51:31.042Z,15.37
2022-09-24T14:54:23.153Z,15.48
2022-09-24T14:56:49.871Z,15.68
2022-09-24T14:59:28.905Z,15.39
2022-09-24T15:02:29.544Z,15.30
2022-09-24T15:05:05.587Z,15.41
2022-09-24T15:07:34.762Z,15.20
2022-09-24T15:10:04.252Z,14.98
2022-09-24T15:12:33.039Z,15.02
2022-09-24T15:15:27.657Z,14.87
2022-09-24T15:17:54.240Z,14.83
2022-09-24T15:20:20.741Z,14.82
2022-09-24T15:22:47.451Z,14.77
2022-09-24T15:25:14.745Z,14.87
2022-09-24T15:27:42.652Z,14.72
2022-09-24T15:30:19.688Z,14.70
2022-09-24T15:32:47.523Z,14.75
2022-09-24T15:35:15.370Z,14.93
2022-09-24T15:37:42.739Z,15.02
2022-09-24T15:40:16.186Z,15.03
2022-09-24T15:42:42.814Z,15.06
2022-09-24T15:45:23.536Z,15.23
2022-09-24T15:47:51.157Z,15.05
2022-09-24T15:50:18.683Z,14.95
2022-09-24T15:52:58.331Z,14.80
2022-09-24T15:55:25.178Z,14.67
2022-09-24T15:57:52.015Z,14.62
2022-09-24T16:00:23.776Z,14.53
2022-09-24T16:02:53.905Z,14.53
2022-09-24T16:05:20.504Z,14.46
2022-09-24T16:07:47.504Z,14.32
2022-09-24T16:10:15.077Z,14.20
2022-09-24T16:12:42.323Z,14.09
2022-09-24T16:15:12.957Z,14.02
2022-09-24T16:17:39.778Z,13.97
2022-09-24T16:20:07.290Z,13.88
2022-09-24T16:22:33.822Z,13.81
2022-09-24T16:25:00.302Z,13.73
2022-09-24T16:27:28.230Z,13.61
2022-09-24T16:29:54.693Z,13.54
2022-09-24T16:32:21.153Z,13.39
2022-09-24T16:34:47.651Z,13.32
2022-09-24T16:37:16.519Z,13.22
2022-09-24T16:39:43.039Z,13.08
2022-09-24T16:42:09.613Z,12.99
2022-09-24T16:44:36.079Z,12.91
2022-09-24T16:47:02.769Z,12.84
2022-09-24T16:49:29.307Z,12.76
2022-09-24T16:51:55.985Z,12.71
2022-09-24T16:54:23.008Z,12.64
2022-09-24T16:56:50.508Z,12.59
2022-09-24T16:59:17.179Z,12.54
2022-09-24T17:01:43.800Z,12.48
2022-09-24T17:04:10.847Z,12.41
2022-09-24T17:06:37.850Z,12.36
2022-09-24T17:09:23.207Z,12.32
2022-09-24T17:11:49.796Z,12.28
2022-09-24T17:14:17.721Z,12.25
2022-09-24T17:16:44.733Z,12.22
2022-09-24T17:19:12.420Z,12.19
2022-09-24T17:21:41.316Z,12.18
2022-09-24T17:24:08.638Z,12.19
2022-09-24T17:26:36.198Z,12.20
2022-09-24T17:29:02.887Z,12.19
2022-09-24T17:31:29.710Z,12.15
2022-09-24T17:34:01.160Z,12.13
2022-09-24T17:36:29.000Z,12.15
2022-09-24T17:38:57.025Z,12.16
2022-09-24T17:41:23.792Z,12.14
2022-09-24T17:43:51.367Z,12.16
2022-09-24T17:46:23.121Z,12.14
2022-09-24T17:48:52.224Z,12.12
2022-09-24T17:51:23.988Z,12.10
2022-09-24T17:53:55.280Z,12.09
2022-09-24T17:56:25.284Z,12.04
2022-09-24T17:58:54.326Z,12.07
2022-09-24T18:01:24.421Z,12.04
2022-09-24T18:03:55.041Z,12.03
2022-09-24T18:06:22.084Z,12.00
2022-09-24T18:08:48.587Z,11.98
2022-09-24T18:11:18.234Z,11.94
2022-09-24T18:13:45.732Z,11.95
2022-09-24T18:16:15.322Z,11.91
2022-09-24T18:18:43.834Z,11.88
2022-09-24T18:21:12.719Z,11.87
2022-09-24T18:23:40.122Z,11.90
2022-09-24T18:26:13.120Z,11.91
2022-09-24T18:28:41.526Z,11.89
2022-09-24T18:31:10.436Z,11.88
2022-09-24T18:33:38.907Z,11.85
2022-09-24T18:36:08.722Z,11.81
2022-09-24T18:38:35.717Z,11.77
2022-09-24T18:41:09.101Z,11.74
2022-09-24T18:43:36.111Z,11.72
2022-09-24T18:46:08.245Z,11.74
2022-09-24T18:48:35.373Z,11.70
2022-09-24T18:51:02.010Z,11.68
2022-09-24T18:53:32.194Z,11.72
2022-09-24T18:56:03.407Z,11.69
2022-09-24T18:58:29.895Z,11.66
2022-09-24T19:01:00.552Z,11.67
2022-09-24T19:03:28.534Z,11.70
2022-09-24T19:06:00.008Z,11.67
2022-09-24T19:08:28.448Z,11.66
2022-09-24T19:10:54.994Z,11.68
2022-09-24T19:13:26.214Z,11.74
2022-09-24T19:15:53.206Z,11.73
2022-09-24T19:18:19.757Z,11.74
2022-09-24T19:20:48.694Z,11.71
2022-09-24T19:23:17.081Z,11.71
2022-09-24T19:25:43.955Z,11.70
2022-09-24T19:28:12.583Z,11.70
2022-09-24T19:30:41.563Z,11.70
2022-09-24T19:33:10.289Z,11.68
2022-09-24T19:35:36.774Z,11.66
2022-09-24T19:38:03.699Z,11.67
2022-09-24T19:40:30.249Z,11.64
2022-09-24T19:42:56.864Z,11.63
2022-09-24T19:45:23.481Z,11.62
2022-09-24T19:47:51.490Z,11.64
2022-09-24T19:50:18.874Z,11.64
2022-09-24T19:52:48.810Z,11.65
2022-09-24T19:55:15.837Z,11.64
2022-09-24T19:57:42.320Z,11.64
2022-09-24T20:00:09.458Z,11.63
2022-09-24T20:02:36.005Z,11.63
2022-09-24T20:05:02.534Z,11.63
2022-09-24T20:07:28.984Z,11.64
2022-09-24T20:09:55.441Z,11.63
2022-09-24T20:12:21.988Z,11.62
2022-09-24T20:14:48.485Z,11.58
2022-09-24T20:17:15.877Z,11.57
2022-09-24T20:19:42.339Z,11.58
2022-09-24T20:22:09.013Z,11.60
2022-09-24T20:24:35.809Z,11.61
2022-09-24T20:27:20.943Z,11.59
2022-09-24T20:29:48.468Z,11.55
2022-09-24T20:32:16.333Z,11.52
2022-09-24T20:34:42.818Z,11.53
2022-09-24T20:37:09.904Z,11.53
2022-09-24T20:39:36.483Z,11.53
2022-09-24T20:42:03.998Z,11.54
2022-09-24T20:44:30.893Z,11.56
2022-09-24T20:46:58.102Z,11.53
2022-09-24T20:49:25.070Z,11.53
2022-09-24T20:51:57.010Z,11.49
2022-09-24T20:54:24.489Z,11.49
2022-09-24T20:56:50.968Z,11.46
2022-09-24T20:59:17.430Z,11.43
2022-09-24T21:01:44.719Z,11.41
2022-09-24T21:04:11.813Z,11.39
2022-09-24T21:06:38.386Z,11.40
2022-09-24T21:09:05.116Z,11.37
2022-09-24T21:11:33.176Z,11.32
2022-09-24T21:14:03.081Z,11.27
2022-09-24T21:16:32.053Z,11.24
2022-09-24T21:19:00.488Z,11.26
2022-09-24T21:21:36.471Z,11.29
2022-09-24T21:24:03.153Z,11.22
2022-09-24T21:26:32.045Z,11.21
2022-09-24T21:29:03.891Z,11.18
2022-09-24T21:31:32.607Z,11.11
2022-09-24T21:33:59.468Z,11.10
2022-09-24T21:36:31.997Z,11.09
2022-09-24T21:39:00.319Z,11.13
2022-09-24T21:41:34.326Z,11.14
2022-09-24T21:44:01.162Z,11.18
2022-09-24T21:46:31.270Z,11.17
2022-09-24T21:48:58.232Z,11.16
2022-09-24T21:51:27.415Z,11.14
2022-09-24T21:54:05.676Z,11.12
2022-09-24T21:56:34.999Z,11.11
2022-09-24T21:59:02.185Z,11.18
2022-09-24T22:01:31.289Z,11.19
2022-09-24T22:03:59.958Z,11.18
2022-09-24T22:06:28.785Z,11.22
2022-09-24T22:08:57.942Z,11.21
2022-09-24T22:11:26.318Z,11.20
2022-09-24T22:13:54.018Z,11.26
2022-09-24T22:16:21.606Z,11.24
2022-09-24T22:18:48.230Z,11.20
2022-09-24T22:21:15.331Z,11.15
2022-09-24T22:23:42.068Z,11.15
2022-09-24T22:26:10.100Z,11.22
2022-09-24T22:28:37.984Z,11.18
2022-09-24T22:31:13.497Z,11.11
2022-09-24T22:33:59.129Z,11.14
2022-09-24T22:36:28.031Z,11.24
2022-09-24T22:38:56.800Z,11.21
2022-09-24T22:41:24.532Z,11.17
2022-09-24T22:43:52.103Z,11.18
2022-09-24T22:46:19.267Z,11.17
2022-09-24T22:48:47.478Z,11.11
2022-09-24T22:51:14.639Z,11.13
2022-09-24T22:53:41.942Z,11.11
2022-09-24T22:56:20.802Z,11.12
2022-09-24T22:58:56.151Z,11.14
2022-09-24T23:01:32.197Z,11.13
2022-09-24T23:03:59.694Z,11.13
2022-09-24T23:06:26.756Z,11.14
2022-09-24T23:08:54.879Z,11.15
2022-09-24T23:11:24.197Z,11.16
2022-09-24T23:13:54.577Z,11.23
2022-09-24T23:16:27.632Z,11.18
2022-09-24T23:18:56.476Z,11.18
2022-09-24T23:21:25.070Z,11.14
2022-09-24T23:23:56.501Z,11.10
2022-09-24T23:26:24.964Z,11.11
2022-09-24T23:28:53.090Z,11.14
2022-09-24T23:31:22.503Z,11.17
2022-09-24T23:33:49.815Z,11.14
2022-09-24T23:36:17.392Z,11.13
2022-09-24T23:38:44.614Z,11.10
2022-09-24T23:41:12.689Z,11.12
2022-09-24T23:43:39.396Z,11.08
2022-09-24T23:46:06.053Z,11.09
2022-09-24T23:48:32.899Z,11.10
2022-09-24T23:50:59.500Z,11.08
2022-09-24T23:53:26.771Z,11.09
2022-09-24T23:55:54.052Z,11.03
2022-09-24T23:58:21.922Z,10.98
